sensor_id;sensor_type;location;lat;lon;timestamp;temperature;humidity
18454;DHT22;9356;52.202;20.950;2023-07-29T00:00:26;20.30;99.90
18454;DHT22;9356;52.202;20.950;2023-07-29T00:01:37;20.30;99.90
18454;DHT22;9356;52.202;20.950;2023-07-29T00:02:49;20.30;99.90
18454;DHT22;9356;52.202;20.950;2023-07-29T00:04:13;20.30;99.90
18454;DHT22;9356;52.202;20.950;2023-07-29T00:05:18;20.70;99.90
18454;DHT22;9356;52.202;20.950;2023-07-29T00:06:29;20.30;99.90
18454;DHT22;9356;52.202;20.950;2023-07-29T00:07:54;20.30;99.90
18454;DHT22;9356;52.202;20.950;2023-07-29T00:09:02;20.20;99.90
18454;DHT22;9356;52.202;20.950;2023-07-29T00:10:12;20.20;99.90
18454;DHT22;9356;52.202;20.950;2023-07-29T00:11:16;20.20;99.90
18454;DHT22;9356;52.202;20.950;2023-07-29T00:12:22;20.20;99.90
18454;DHT22;9356;52.202;20.950;2023-07-29T00:13:26;20.20;99.90
18454;DHT22;9356;52.202;20.950;2023-07-29T00:14:36;20.20;99.90
18454;DHT22;9356;52.202;20.950;2023-07-29T00:15:41;20.20;99.90
18454;DHT22;9356;52.202;20.950;2023-07-29T00:16:49;20.20;99.90
18454;DHT22;9356;52.202;20.950;2023-07-29T00:17:58;20.20;99.90
18454;DHT22;9356;52.202;20.950;2023-07-29T00:19:13;20.30;99.90
18454;DHT22;9356;52.202;20.950;2023-07-29T00:20:21;20.40;99.90
18454;DHT22;9356;52.202;20.950;2023-07-29T00:21:30;20.30;99.90
18454;DHT22;9356;52.202;20.950;2023-07-29T00:22:45;20.20;99.90
18454;DHT22;9356;52.202;20.950;2023-07-29T00:23:54;20.30;99.90
18454;DHT22;9356;52.202;20.950;2023-07-29T00:25:05;19.40;99.90
18454;DHT22;9356;52.202;20.950;2023-07-29T00:26:21;20.20;99.90
18454;DHT22;9356;52.202;20.950;2023-07-29T00:27:26;20.20;99.90
18454;DHT22;9356;52.202;20.950;2023-07-29T00:28:34;20.20;99.90
18454;DHT22;9356;52.202;20.950;2023-07-29T00:29:37;19.90;99.90
18454;DHT22;9356;52.202;20.950;2023-07-29T00:30:49;20.10;99.90
18454;DHT22;9356;52.202;20.950;2023-07-29T00:31:58;20.20;99.90
18454;DHT22;9356;52.202;20.950;2023-07-29T00:33:10;20.10;99.90
18454;DHT22;9356;52.202;20.950;2023-07-29T00:34:21;20.10;99.90
18454;DHT22;9356;52.202;20.950;2023-07-29T00:35:26;20.10;99.90
18454;DHT22;9356;52.202;20.950;2023-07-29T00:36:40;20.10;99.90
18454;DHT22;9356;52.202;20.950;2023-07-29T00:37:50;20.30;99.90
18454;DHT22;9356;52.202;20.950;2023-07-29T00:38:54;20.10;99.90
18454;DHT22;9356;52.202;20.950;2023-07-29T00:40:19;20.10;99.90
18454;DHT22;9356;52.202;20.950;2023-07-29T00:41:26;20.60;99.90
18454;DHT22;9356;52.202;20.950;2023-07-29T00:42:37;20.10;99.90
18454;DHT22;9356;52.202;20.950;2023-07-29T00:43:48;20.00;99.90
18454;DHT22;9356;52.202;20.950;2023-07-29T00:45:13;20.00;99.90
18454;DHT22;9356;52.202;20.950;2023-07-29T00:46:25;20.10;99.90
18454;DHT22;9356;52.202;20.950;2023-07-29T00:47:37;20.10;99.90
18454;DHT22;9356;52.202;20.950;2023-07-29T00:48:58;20.00;99.90
18454;DHT22;9356;52.202;20.950;2023-07-29T00:50:08;20.00;99.90
18454;DHT22;9356;52.202;20.950;2023-07-29T00:51:14;20.10;99.90
18454;DHT22;9356;52.202;20.950;2023-07-29T00:52:30;20.00;99.90
18454;DHT22;9356;52.202;20.950;2023-07-29T00:53:38;20.00;99.90
18454;DHT22;9356;52.202;20.950;2023-07-29T00:54:45;20.00;99.90
18454;DHT22;9356;52.202;20.950;2023-07-29T00:55:49;20.00;99.90
18454;DHT22;9356;52.202;20.950;2023-07-29T00:56:57;20.00;99.90
18454;DHT22;9356;52.202;20.950;2023-07-29T00:58:24;20.00;99.90
18454;DHT22;9356;52.202;20.950;2023-07-29T00:59:33;20.00;99.90
18454;DHT22;9356;52.202;20.950;2023-07-29T01:00:53;20.00;99.90
18454;DHT22;9356;52.202;20.950;2023-07-29T01:02:26;20.00;99.90
18454;DHT22;9356;52.202;20.950;2023-07-29T01:03:33;20.10;99.90
18454;DHT22;9356;52.202;20.950;2023-07-29T01:04:44;20.00;99.90
18454;DHT22;9356;52.202;20.950;2023-07-29T01:06:05;20.00;99.90
18454;DHT22;9356;52.202;20.950;2023-07-29T01:07:25;20.50;99.90
18454;DHT22;9356;52.202;20.950;2023-07-29T01:08:46;20.10;99.90
18454;DHT22;9356;52.202;20.950;2023-07-29T01:10:02;20.20;99.90
18454;DHT22;9356;52.202;20.950;2023-07-29T01:11:33;20.00;99.90
18454;DHT22;9356;52.202;20.950;2023-07-29T01:12:51;20.00;99.90
18454;DHT22;9356;52.202;20.950;2023-07-29T01:14:08;20.00;99.90
18454;DHT22;9356;52.202;20.950;2023-07-29T01:15:25;20.00;99.90
18454;DHT22;9356;52.202;20.950;2023-07-29T01:16:40;18.70;99.90
18454;DHT22;9356;52.202;20.950;2023-07-29T01:17:49;20.00;99.90
18454;DHT22;9356;52.202;20.950;2023-07-29T01:19:19;20.00;99.90
18454;DHT22;9356;52.202;20.950;2023-07-29T01:20:34;19.90;99.90
18454;DHT22;9356;52.202;20.950;2023-07-29T01:21:58;19.90;99.90
18454;DHT22;9356;52.202;20.950;2023-07-29T01:23:13;17.60;99.90
18454;DHT22;9356;52.202;20.950;2023-07-29T01:24:24;19.90;99.90
18454;DHT22;9356;52.202;20.950;2023-07-29T01:25:29;19.80;99.90
18454;DHT22;9356;52.202;20.950;2023-07-29T01:26:36;19.80;99.90
18454;DHT22;9356;52.202;20.950;2023-07-29T01:27:46;19.80;99.90
18454;DHT22;9356;52.202;20.950;2023-07-29T01:28:57;19.80;99.90
18454;DHT22;9356;52.202;20.950;2023-07-29T01:30:05;19.80;99.90
18454;DHT22;9356;52.202;20.950;2023-07-29T01:31:31;19.80;99.90
18454;DHT22;9356;52.202;20.950;2023-07-29T01:32:46;19.80;99.90
18454;DHT22;9356;52.202;20.950;2023-07-29T01:34:01;19.70;99.90
18454;DHT22;9356;52.202;20.950;2023-07-29T01:35:27;19.70;99.90
18454;DHT22;9356;52.202;20.950;2023-07-29T01:36:38;19.70;99.90
18454;DHT22;9356;52.202;20.950;2023-07-29T01:37:57;18.50;99.90
18454;DHT22;9356;52.202;20.950;2023-07-29T01:39:06;19.80;99.90
18454;DHT22;9356;52.202;20.950;2023-07-29T01:40:23;19.80;99.90
18454;DHT22;9356;52.202;20.950;2023-07-29T01:41:33;19.80;99.90
18454;DHT22;9356;52.202;20.950;2023-07-29T01:42:39;19.80;99.90
18454;DHT22;9356;52.202;20.950;2023-07-29T01:43:50;19.80;99.90
18454;DHT22;9356;52.202;20.950;2023-07-29T01:44:59;19.90;99.90
18454;DHT22;9356;52.202;20.950;2023-07-29T01:46:15;19.90;99.90
18454;DHT22;9356;52.202;20.950;2023-07-29T01:47:33;19.80;99.90
18454;DHT22;9356;52.202;20.950;2023-07-29T01:48:46;17.40;99.90
18454;DHT22;9356;52.202;20.950;2023-07-29T01:50:02;20.10;99.90
18454;DHT22;9356;52.202;20.950;2023-07-29T01:51:12;19.90;99.90
18454;DHT22;9356;52.202;20.950;2023-07-29T01:52:16;19.90;99.90
18454;DHT22;9356;52.202;20.950;2023-07-29T01:53:21;19.80;99.90
18454;DHT22;9356;52.202;20.950;2023-07-29T01:54:28;19.90;99.90
18454;DHT22;9356;52.202;20.950;2023-07-29T01:55:52;22.10;99.90
18454;DHT22;9356;52.202;20.950;2023-07-29T01:57:00;19.90;99.90
18454;DHT22;9356;52.202;20.950;2023-07-29T01:58:08;19.90;99.90
18454;DHT22;9356;52.202;20.950;2023-07-29T01:59:14;19.90;99.90
18454;DHT22;9356;52.202;20.950;2023-07-29T02:00:21;19.90;99.90
18454;DHT22;9356;52.202;20.950;2023-07-29T02:01:28;19.90;99.90
18454;DHT22;9356;52.202;20.950;2023-07-29T02:02:37;19.80;99.90
18454;DHT22;9356;52.202;20.950;2023-07-29T02:03:46;19.80;99.90
18454;DHT22;9356;52.202;20.950;2023-07-29T02:05:02;19.90;99.90
18454;DHT22;9356;52.202;20.950;2023-07-29T02:07:41;19.90;99.90
18454;DHT22;9356;52.202;20.950;2023-07-29T02:08:48;19.90;99.90
18454;DHT22;9356;52.202;20.950;2023-07-29T02:09:55;19.80;99.90
18454;DHT22;9356;52.202;20.950;2023-07-29T02:11:04;19.80;99.90
18454;DHT22;9356;52.202;20.950;2023-07-29T02:12:13;19.80;99.90
18454;DHT22;9356;52.202;20.950;2023-07-29T02:13:23;19.80;99.90
18454;DHT22;9356;52.202;20.950;2023-07-29T02:14:33;19.70;99.90
18454;DHT22;9356;52.202;20.950;2023-07-29T02:15:38;19.80;99.90
18454;DHT22;9356;52.202;20.950;2023-07-29T02:16:50;21.00;99.90
18454;DHT22;9356;52.202;20.950;2023-07-29T02:17:56;19.80;99.90
18454;DHT22;9356;52.202;20.950;2023-07-29T02:19:05;19.80;99.90
18454;DHT22;9356;52.202;20.950;2023-07-29T02:21:21;19.80;99.90
18454;DHT22;9356;52.202;20.950;2023-07-29T02:22:34;19.80;99.90
18454;DHT22;9356;52.202;20.950;2023-07-29T02:23:46;19.50;99.90
18454;DHT22;9356;52.202;20.950;2023-07-29T02:24:53;19.80;99.90
18454;DHT22;9356;52.202;20.950;2023-07-29T02:26:08;18.70;99.90
18454;DHT22;9356;52.202;20.950;2023-07-29T02:27:18;19.80;99.90
18454;DHT22;9356;52.202;20.950;2023-07-29T02:28:25;19.50;99.90
18454;DHT22;9356;52.202;20.950;2023-07-29T02:29:30;19.80;99.90
18454;DHT22;9356;52.202;20.950;2023-07-29T02:32:31;19.60;99.90
18454;DHT22;9356;52.202;20.950;2023-07-29T02:33:38;19.90;99.90
18454;DHT22;9356;52.202;20.950;2023-07-29T02:34:41;19.80;99.90
18454;DHT22;9356;52.202;20.950;2023-07-29T02:35:45;19.80;99.90
18454;DHT22;9356;52.202;20.950;2023-07-29T02:36:53;19.80;99.90
18454;DHT22;9356;52.202;20.950;2023-07-29T02:38:00;19.80;99.90
18454;DHT22;9356;52.202;20.950;2023-07-29T02:39:08;19.80;99.90
18454;DHT22;9356;52.202;20.950;2023-07-29T02:40:17;19.80;99.90
18454;DHT22;9356;52.202;20.950;2023-07-29T02:41:23;19.70;99.90
18454;DHT22;9356;52.202;20.950;2023-07-29T02:42:27;19.70;99.90
18454;DHT22;9356;52.202;20.950;2023-07-29T02:43:36;19.80;99.90
18454;DHT22;9356;52.202;20.950;2023-07-29T02:44:40;19.70;99.90
18454;DHT22;9356;52.202;20.950;2023-07-29T02:45:48;19.70;99.90
18454;DHT22;9356;52.202;20.950;2023-07-29T02:46:57;19.70;99.90
18454;DHT22;9356;52.202;20.950;2023-07-29T02:48:06;19.70;99.90
18454;DHT22;9356;52.202;20.950;2023-07-29T02:49:12;19.80;99.90
18454;DHT22;9356;52.202;20.950;2023-07-29T02:50:18;19.70;99.90
18454;DHT22;9356;52.202;20.950;2023-07-29T02:51:25;19.80;99.90
18454;DHT22;9356;52.202;20.950;2023-07-29T02:52:31;19.70;99.90
18454;DHT22;9356;52.202;20.950;2023-07-29T02:53:38;17.50;99.90
18454;DHT22;9356;52.202;20.950;2023-07-29T02:54:49;19.70;99.90
18454;DHT22;9356;52.202;20.950;2023-07-29T02:55:53;19.70;99.90
18454;DHT22;9356;52.202;20.950;2023-07-29T02:57:01;19.70;99.90
18454;DHT22;9356;52.202;20.950;2023-07-29T02:58:12;19.70;99.90
18454;DHT22;9356;52.202;20.950;2023-07-29T02:59:16;19.70;99.90
18454;DHT22;9356;52.202;20.950;2023-07-29T03:00:21;19.70;99.90
18454;DHT22;9356;52.202;20.950;2023-07-29T03:01:28;19.70;99.90
18454;DHT22;9356;52.202;20.950;2023-07-29T03:02:33;19.80;99.90
18454;DHT22;9356;52.202;20.950;2023-07-29T03:03:39;19.70;99.90
18454;DHT22;9356;52.202;20.950;2023-07-29T03:04:43;19.70;99.90
18454;DHT22;9356;52.202;20.950;2023-07-29T03:05:50;17.50;99.90
18454;DHT22;9356;52.202;20.950;2023-07-29T03:07:05;19.70;99.90
18454;DHT22;9356;52.202;20.950;2023-07-29T03:08:21;19.80;99.90
18454;DHT22;9356;52.202;20.950;2023-07-29T03:09:24;19.70;99.90
18454;DHT22;9356;52.202;20.950;2023-07-29T03:10:30;19.80;99.90
18454;DHT22;9356;52.202;20.950;2023-07-29T03:11:37;21.20;99.90
18454;DHT22;9356;52.202;20.950;2023-07-29T03:12:49;19.80;99.90
18454;DHT22;9356;52.202;20.950;2023-07-29T03:14:01;19.80;99.90
18454;DHT22;9356;52.202;20.950;2023-07-29T03:15:08;19.70;99.90
18454;DHT22;9356;52.202;20.950;2023-07-29T03:16:17;19.70;99.90
18454;DHT22;9356;52.202;20.950;2023-07-29T03:17:32;19.70;99.90
18454;DHT22;9356;52.202;20.950;2023-07-29T03:18:40;19.60;99.90
18454;DHT22;9356;52.202;20.950;2023-07-29T03:19:48;19.60;99.90
18454;DHT22;9356;52.202;20.950;2023-07-29T03:20:56;19.70;99.90
18454;DHT22;9356;52.202;20.950;2023-07-29T03:22:04;19.70;99.90
18454;DHT22;9356;52.202;20.950;2023-07-29T03:23:13;19.70;99.90
18454;DHT22;9356;52.202;20.950;2023-07-29T03:24:17;19.70;99.90
18454;DHT22;9356;52.202;20.950;2023-07-29T03:25:20;19.60;99.90
18454;DHT22;9356;52.202;20.950;2023-07-29T03:26:24;19.70;99.90
18454;DHT22;9356;52.202;20.950;2023-07-29T03:27:30;19.70;99.90
18454;DHT22;9356;52.202;20.950;2023-07-29T03:28:43;19.70;99.90
18454;DHT22;9356;52.202;20.950;2023-07-29T03:29:47;19.60;99.90
18454;DHT22;9356;52.202;20.950;2023-07-29T03:30:58;19.70;99.90
18454;DHT22;9356;52.202;20.950;2023-07-29T03:32:15;19.60;99.90
18454;DHT22;9356;52.202;20.950;2023-07-29T03:33:24;19.60;99.90
18454;DHT22;9356;52.202;20.950;2023-07-29T03:34:30;19.20;99.90
18454;DHT22;9356;52.202;20.950;2023-07-29T03:35:54;19.60;99.90
18454;DHT22;9356;52.202;20.950;2023-07-29T03:37:16;19.30;99.90
18454;DHT22;9356;52.202;20.950;2023-07-29T03:38:26;19.70;99.90
18454;DHT22;9356;52.202;20.950;2023-07-29T03:39:31;19.70;99.90
18454;DHT22;9356;52.202;20.950;2023-07-29T03:40:38;19.70;99.90
18454;DHT22;9356;52.202;20.950;2023-07-29T03:41:45;19.70;99.90
18454;DHT22;9356;52.202;20.950;2023-07-29T03:42:49;19.60;99.90
18454;DHT22;9356;52.202;20.950;2023-07-29T03:43:56;19.70;99.90
18454;DHT22;9356;52.202;20.950;2023-07-29T03:45:10;19.60;99.90
18454;DHT22;9356;52.202;20.950;2023-07-29T03:46:18;21.70;99.90
18454;DHT22;9356;52.202;20.950;2023-07-29T03:47:30;19.60;99.90
18454;DHT22;9356;52.202;20.950;2023-07-29T03:49:53;19.70;99.90
18454;DHT22;9356;52.202;20.950;2023-07-29T03:50:59;19.60;99.90
18454;DHT22;9356;52.202;20.950;2023-07-29T03:52:06;19.70;99.90
18454;DHT22;9356;52.202;20.950;2023-07-29T03:53:09;19.70;99.90
18454;DHT22;9356;52.202;20.950;2023-07-29T03:54:26;19.70;99.90
18454;DHT22;9356;52.202;20.950;2023-07-29T03:55:43;19.80;99.90
18454;DHT22;9356;52.202;20.950;2023-07-29T03:56:52;19.70;99.90
18454;DHT22;9356;52.202;20.950;2023-07-29T03:58:01;19.70;99.90
18454;DHT22;9356;52.202;20.950;2023-07-29T03:59:12;19.70;99.90
18454;DHT22;9356;52.202;20.950;2023-07-29T04:00:17;19.80;99.90
18454;DHT22;9356;52.202;20.950;2023-07-29T04:01:24;19.70;99.90
18454;DHT22;9356;52.202;20.950;2023-07-29T04:02:28;19.70;99.90
18454;DHT22;9356;52.202;20.950;2023-07-29T04:03:36;19.80;99.90
18454;DHT22;9356;52.202;20.950;2023-07-29T04:04:42;19.20;99.90
18454;DHT22;9356;52.202;20.950;2023-07-29T04:05:50;19.80;99.90
18454;DHT22;9356;52.202;20.950;2023-07-29T04:06:59;19.80;99.90
18454;DHT22;9356;52.202;20.950;2023-07-29T04:08:06;19.90;99.90
18454;DHT22;9356;52.202;20.950;2023-07-29T04:09:13;19.80;99.90
18454;DHT22;9356;52.202;20.950;2023-07-29T04:10:17;20.00;99.90
18454;DHT22;9356;52.202;20.950;2023-07-29T04:11:26;19.70;99.90
18454;DHT22;9356;52.202;20.950;2023-07-29T04:12:33;19.90;99.90
18454;DHT22;9356;52.202;20.950;2023-07-29T04:13:37;19.80;99.90
18454;DHT22;9356;52.202;20.950;2023-07-29T04:14:45;19.90;99.90
18454;DHT22;9356;52.202;20.950;2023-07-29T04:16:12;19.90;99.90
18454;DHT22;9356;52.202;20.950;2023-07-29T04:17:17;19.80;99.90
18454;DHT22;9356;52.202;20.950;2023-07-29T04:18:21;19.80;99.90
18454;DHT22;9356;52.202;20.950;2023-07-29T04:19:28;21.60;99.90
18454;DHT22;9356;52.202;20.950;2023-07-29T04:20:33;19.80;99.90
18454;DHT22;9356;52.202;20.950;2023-07-29T04:21:43;20.10;99.90
18454;DHT22;9356;52.202;20.950;2023-07-29T04:22:49;19.80;99.90
18454;DHT22;9356;52.202;20.950;2023-07-29T04:23:53;19.80;99.90
18454;DHT22;9356;52.202;20.950;2023-07-29T04:25:01;19.80;99.90
18454;DHT22;9356;52.202;20.950;2023-07-29T04:26:09;19.90;99.90
18454;DHT22;9356;52.202;20.950;2023-07-29T04:27:25;19.80;99.90
18454;DHT22;9356;52.202;20.950;2023-07-29T04:28:37;19.80;99.90
18454;DHT22;9356;52.202;20.950;2023-07-29T04:29:45;19.80;99.90
18454;DHT22;9356;52.202;20.950;2023-07-29T04:30:53;19.80;99.90
18454;DHT22;9356;52.202;20.950;2023-07-29T04:32:04;19.80;99.90
18454;DHT22;9356;52.202;20.950;2023-07-29T04:33:13;18.70;99.90
18454;DHT22;9356;52.202;20.950;2023-07-29T04:34:17;19.70;99.90
18454;DHT22;9356;52.202;20.950;2023-07-29T04:35:24;19.80;99.90
18454;DHT22;9356;52.202;20.950;2023-07-29T04:36:28;19.70;99.90
18454;DHT22;9356;52.202;20.950;2023-07-29T04:37:32;19.80;99.90
18454;DHT22;9356;52.202;20.950;2023-07-29T04:38:41;19.90;99.90
18454;DHT22;9356;52.202;20.950;2023-07-29T04:39:49;21.90;99.90
18454;DHT22;9356;52.202;20.950;2023-07-29T04:40:52;19.80;99.90
18454;DHT22;9356;52.202;20.950;2023-07-29T04:41:56;19.90;99.90
18454;DHT22;9356;52.202;20.950;2023-07-29T04:43:05;19.20;99.90
18454;DHT22;9356;52.202;20.950;2023-07-29T04:44:16;17.50;99.90
18454;DHT22;9356;52.202;20.950;2023-07-29T04:45:21;19.90;99.90
18454;DHT22;9356;52.202;20.950;2023-07-29T04:46:36;19.90;99.90
18454;DHT22;9356;52.202;20.950;2023-07-29T04:47:41;20.00;99.90
18454;DHT22;9356;52.202;20.950;2023-07-29T04:48:50;20.00;99.90
18454;DHT22;9356;52.202;20.950;2023-07-29T04:49:57;19.90;99.90
18454;DHT22;9356;52.202;20.950;2023-07-29T04:51:06;19.90;99.90
18454;DHT22;9356;52.202;20.950;2023-07-29T04:52:20;19.90;99.90
18454;DHT22;9356;52.202;20.950;2023-07-29T04:53:24;19.90;99.90
18454;DHT22;9356;52.202;20.950;2023-07-29T04:54:49;19.70;99.90
18454;DHT22;9356;52.202;20.950;2023-07-29T04:56:01;19.80;99.90
18454;DHT22;9356;52.202;20.950;2023-07-29T04:57:05;19.80;99.90
18454;DHT22;9356;52.202;20.950;2023-07-29T04:58:17;19.60;99.90
18454;DHT22;9356;52.202;20.950;2023-07-29T04:59:25;19.60;99.90
18454;DHT22;9356;52.202;20.950;2023-07-29T05:00:36;19.60;99.90
18454;DHT22;9356;52.202;20.950;2023-07-29T05:01:42;19.60;99.90
18454;DHT22;9356;52.202;20.950;2023-07-29T05:02:56;19.50;99.90
18454;DHT22;9356;52.202;20.950;2023-07-29T05:04:05;19.60;99.90
18454;DHT22;9356;52.202;20.950;2023-07-29T05:05:12;19.60;99.90
18454;DHT22;9356;52.202;20.950;2023-07-29T05:06:16;19.60;99.90
18454;DHT22;9356;52.202;20.950;2023-07-29T05:07:20;19.70;99.90
18454;DHT22;9356;52.202;20.950;2023-07-29T05:08:28;19.70;99.90
18454;DHT22;9356;52.202;20.950;2023-07-29T05:09:37;19.70;99.90
18454;DHT22;9356;52.202;20.950;2023-07-29T05:10:43;19.70;99.90
18454;DHT22;9356;52.202;20.950;2023-07-29T05:11:53;19.70;99.90
18454;DHT22;9356;52.202;20.950;2023-07-29T05:13:03;19.70;99.90
18454;DHT22;9356;52.202;20.950;2023-07-29T05:14:16;19.70;99.90
18454;DHT22;9356;52.202;20.950;2023-07-29T05:15:29;19.80;99.90
18454;DHT22;9356;52.202;20.950;2023-07-29T05:16:38;19.90;99.90
18454;DHT22;9356;52.202;20.950;2023-07-29T05:17:45;19.90;99.90
18454;DHT22;9356;52.202;20.950;2023-07-29T05:18:50;19.90;99.90
18454;DHT22;9356;52.202;20.950;2023-07-29T05:20:01;19.90;99.90
18454;DHT22;9356;52.202;20.950;2023-07-29T05:21:10;19.90;99.90
18454;DHT22;9356;52.202;20.950;2023-07-29T05:22:16;20.00;99.90
18454;DHT22;9356;52.202;20.950;2023-07-29T05:23:20;20.00;99.90
18454;DHT22;9356;52.202;20.950;2023-07-29T05:24:29;20.10;99.90
18454;DHT22;9356;52.202;20.950;2023-07-29T05:25:37;20.10;99.90
18454;DHT22;9356;52.202;20.950;2023-07-29T05:26:42;20.10;99.90
18454;DHT22;9356;52.202;20.950;2023-07-29T05:27:52;20.10;99.90
18454;DHT22;9356;52.202;20.950;2023-07-29T05:29:02;20.10;99.90
18454;DHT22;9356;52.202;20.950;2023-07-29T05:30:08;20.20;99.90
18454;DHT22;9356;52.202;20.950;2023-07-29T05:31:12;20.10;99.90
18454;DHT22;9356;52.202;20.950;2023-07-29T05:32:20;20.10;99.90
18454;DHT22;9356;52.202;20.950;2023-07-29T05:33:24;20.20;99.90
18454;DHT22;9356;52.202;20.950;2023-07-29T05:34:33;20.10;99.90
18454;DHT22;9356;52.202;20.950;2023-07-29T05:35:37;18.70;99.90
18454;DHT22;9356;52.202;20.950;2023-07-29T05:36:43;18.20;99.90
18454;DHT22;9356;52.202;20.950;2023-07-29T05:37:49;20.20;99.90
18454;DHT22;9356;52.202;20.950;2023-07-29T05:39:00;20.20;99.90
18454;DHT22;9356;52.202;20.950;2023-07-29T05:40:09;20.20;99.90
18454;DHT22;9356;52.202;20.950;2023-07-29T05:41:21;20.20;99.90
18454;DHT22;9356;52.202;20.950;2023-07-29T05:42:29;21.60;99.90
18454;DHT22;9356;52.202;20.950;2023-07-29T05:43:37;20.30;99.90
18454;DHT22;9356;52.202;20.950;2023-07-29T05:44:45;20.20;99.90
18454;DHT22;9356;52.202;20.950;2023-07-29T05:45:50;20.10;99.90
18454;DHT22;9356;52.202;20.950;2023-07-29T05:46:53;20.10;99.90
18454;DHT22;9356;52.202;20.950;2023-07-29T05:48:05;20.10;99.90
18454;DHT22;9356;52.202;20.950;2023-07-29T05:49:09;20.10;99.90
18454;DHT22;9356;52.202;20.950;2023-07-29T05:50:17;20.20;99.90
18454;DHT22;9356;52.202;20.950;2023-07-29T05:51:22;20.20;99.90
18454;DHT22;9356;52.202;20.950;2023-07-29T05:52:29;20.20;99.90
18454;DHT22;9356;52.202;20.950;2023-07-29T05:53:41;20.30;99.90
18454;DHT22;9356;52.202;20.950;2023-07-29T05:54:49;20.20;99.90
18454;DHT22;9356;52.202;20.950;2023-07-29T05:56:01;20.30;99.90
18454;DHT22;9356;52.202;20.950;2023-07-29T05:57:12;20.30;99.90
18454;DHT22;9356;52.202;20.950;2023-07-29T05:58:16;20.30;99.90
18454;DHT22;9356;52.202;20.950;2023-07-29T05:59:29;20.40;99.90
18454;DHT22;9356;52.202;20.950;2023-07-29T06:00:40;20.40;99.90
18454;DHT22;9356;52.202;20.950;2023-07-29T06:01:56;20.60;99.90
18454;DHT22;9356;52.202;20.950;2023-07-29T06:03:13;20.60;99.90
18454;DHT22;9356;52.202;20.950;2023-07-29T06:04:34;20.80;99.90
18454;DHT22;9356;52.202;20.950;2023-07-29T06:05:40;20.90;99.90
18454;DHT22;9356;52.202;20.950;2023-07-29T06:06:52;21.90;99.90
18454;DHT22;9356;52.202;20.950;2023-07-29T06:08:00;21.10;99.90
18454;DHT22;9356;52.202;20.950;2023-07-29T06:09:09;21.10;99.90
18454;DHT22;9356;52.202;20.950;2023-07-29T06:10:15;21.20;99.90
18454;DHT22;9356;52.202;20.950;2023-07-29T06:11:21;21.20;99.90
18454;DHT22;9356;52.202;20.950;2023-07-29T06:12:25;21.20;99.90
18454;DHT22;9356;52.202;20.950;2023-07-29T06:13:36;21.30;99.90
18454;DHT22;9356;52.202;20.950;2023-07-29T06:14:43;21.30;99.90
18454;DHT22;9356;52.202;20.950;2023-07-29T06:15:52;21.30;99.90
18454;DHT22;9356;52.202;20.950;2023-07-29T06:16:56;21.30;99.90
18454;DHT22;9356;52.202;20.950;2023-07-29T06:18:02;21.30;99.90
18454;DHT22;9356;52.202;20.950;2023-07-29T06:19:09;21.30;99.90
18454;DHT22;9356;52.202;20.950;2023-07-29T06:20:16;21.20;99.90
18454;DHT22;9356;52.202;20.950;2023-07-29T06:21:21;21.20;99.90
18454;DHT22;9356;52.202;20.950;2023-07-29T06:22:25;21.10;99.90
18454;DHT22;9356;52.202;20.950;2023-07-29T06:23:37;21.10;99.90
18454;DHT22;9356;52.202;20.950;2023-07-29T06:24:45;22.30;99.90
18454;DHT22;9356;52.202;20.950;2023-07-29T06:25:48;19.10;99.90
18454;DHT22;9356;52.202;20.950;2023-07-29T06:26:52;21.00;99.90
18454;DHT22;9356;52.202;20.950;2023-07-29T06:27:57;21.00;99.90
18454;DHT22;9356;52.202;20.950;2023-07-29T06:29:09;21.00;99.90
18454;DHT22;9356;52.202;20.950;2023-07-29T06:30:12;21.20;99.90
18454;DHT22;9356;52.202;20.950;2023-07-29T06:31:22;19.00;99.90
18454;DHT22;9356;52.202;20.950;2023-07-29T06:32:37;21.00;99.90
18454;DHT22;9356;52.202;20.950;2023-07-29T06:33:41;20.80;99.90
18454;DHT22;9356;52.202;20.950;2023-07-29T06:34:48;21.00;99.90
18454;DHT22;9356;52.202;20.950;2023-07-29T06:35:57;21.00;99.90
18454;DHT22;9356;52.202;20.950;2023-07-29T06:37:03;21.00;99.90
18454;DHT22;9356;52.202;20.950;2023-07-29T06:38:09;20.90;99.90
18454;DHT22;9356;52.202;20.950;2023-07-29T06:39:17;21.00;99.90
18454;DHT22;9356;52.202;20.950;2023-07-29T06:40:24;20.90;99.90
18454;DHT22;9356;52.202;20.950;2023-07-29T06:41:36;21.00;99.90
18454;DHT22;9356;52.202;20.950;2023-07-29T06:42:45;21.00;99.90
18454;DHT22;9356;52.202;20.950;2023-07-29T06:43:53;21.00;99.90
18454;DHT22;9356;52.202;20.950;2023-07-29T06:45:01;21.00;99.90
18454;DHT22;9356;52.202;20.950;2023-07-29T06:46:04;21.00;99.90
18454;DHT22;9356;52.202;20.950;2023-07-29T06:47:13;21.10;99.90
18454;DHT22;9356;52.202;20.950;2023-07-29T06:48:16;21.10;99.90
18454;DHT22;9356;52.202;20.950;2023-07-29T06:49:25;21.20;99.90
18454;DHT22;9356;52.202;20.950;2023-07-29T06:50:42;21.20;99.90
18454;DHT22;9356;52.202;20.950;2023-07-29T06:51:49;21.50;99.90
18454;DHT22;9356;52.202;20.950;2023-07-29T06:52:56;21.30;99.90
18454;DHT22;9356;52.202;20.950;2023-07-29T06:54:00;21.40;99.90
18454;DHT22;9356;52.202;20.950;2023-07-29T06:55:09;21.30;99.90
18454;DHT22;9356;52.202;20.950;2023-07-29T06:56:20;21.30;99.90
18454;DHT22;9356;52.202;20.950;2023-07-29T06:57:25;21.50;99.90
18454;DHT22;9356;52.202;20.950;2023-07-29T06:58:34;21.60;99.90
18454;DHT22;9356;52.202;20.950;2023-07-29T06:59:40;21.80;99.90
18454;DHT22;9356;52.202;20.950;2023-07-29T07:00:52;22.00;99.90
18454;DHT22;9356;52.202;20.950;2023-07-29T07:02:01;22.10;99.90
18454;DHT22;9356;52.202;20.950;2023-07-29T07:03:11;22.20;99.80
18454;DHT22;9356;52.202;20.950;2023-07-29T07:04:14;21.30;99.10
18454;DHT22;9356;52.202;20.950;2023-07-29T07:05:21;22.40;99.50
18454;DHT22;9356;52.202;20.950;2023-07-29T07:06:29;22.50;98.70
18454;DHT22;9356;52.202;20.950;2023-07-29T07:07:37;22.70;98.50
18454;DHT22;9356;52.202;20.950;2023-07-29T07:08:40;22.80;98.40
18454;DHT22;9356;52.202;20.950;2023-07-29T07:09:45;22.80;98.50
18454;DHT22;9356;52.202;20.950;2023-07-29T07:10:53;22.90;98.30
18454;DHT22;9356;52.202;20.950;2023-07-29T07:12:00;23.00;98.00
18454;DHT22;9356;52.202;20.950;2023-07-29T07:13:05;22.90;97.90
18454;DHT22;9356;52.202;20.950;2023-07-29T07:14:21;22.90;97.70
18454;DHT22;9356;52.202;20.950;2023-07-29T07:15:28;22.90;97.90
18454;DHT22;9356;52.202;20.950;2023-07-29T07:16:38;22.80;97.90
18454;DHT22;9356;52.202;20.950;2023-07-29T07:17:50;22.80;98.20
18454;DHT22;9356;52.202;20.950;2023-07-29T07:19:05;22.90;98.70
18454;DHT22;9356;52.202;20.950;2023-07-29T07:20:21;23.00;98.60
18454;DHT22;9356;52.202;20.950;2023-07-29T07:21:41;23.20;97.70
18454;DHT22;9356;52.202;20.950;2023-07-29T07:22:45;21.10;96.90
18454;DHT22;9356;52.202;20.950;2023-07-29T07:24:04;23.50;98.00